Lake In The Hills, Illinois
Current Conditions -  °F | °C
As of 7:52 PM on Wednesday 17 Dec 2014 (Local Time) from KDPA Reporting Station
Overcast Overcast  
Wind Chill: 16°   Ceiling: 2200
Heat Index: 24°   Visibility: 10mi
Dew Point: 16°   Wind: 7mph
Humidity: 71%   Direction: 280°W
Pressure: 30.26"   Gusts: NA
Location:  42.18°N, 88.33°W
Report Text: KDPA 180152Z 28006KT 10SM OVC022 M04/M09 A3026 RMK AO2 SLP260 T10441089
Loading
Personal Weather Stations






























Interactive Weather Map New forecast layout! Learn more

10-Day Weather Forecast

Advertisements
Track Severe Weather on mobile